createdAt,value
2017-11-11T00:01:18.961Z,2.90
2017-11-11T00:03:46.419Z,3.30
2017-11-11T00:06:13.925Z,3.40
2017-11-11T00:08:41.484Z,2.63
2017-11-11T00:11:09.054Z,2.43
2017-11-11T00:13:36.501Z,2.10
2017-11-11T00:16:04.027Z,3.03
2017-11-11T00:18:31.491Z,2.83
2017-11-11T00:20:59.002Z,2.90
2017-11-11T00:23:26.518Z,3.33
2017-11-11T00:25:53.975Z,2.83
2017-11-11T00:28:21.478Z,2.47
2017-11-11T00:30:48.994Z,2.80
2017-11-11T00:33:16.563Z,2.43
2017-11-11T00:35:44.113Z,1.80
2017-11-11T00:38:11.594Z,2.27
2017-11-11T00:40:39.058Z,2.30
2017-11-11T00:43:06.536Z,1.90
2017-11-11T00:45:33.992Z,3.43
2017-11-11T00:48:01.476Z,2.23
2017-11-11T00:50:28.937Z,2.13
2017-11-11T00:52:56.406Z,5.10
2017-11-11T00:55:23.970Z,3.13
2017-11-11T00:57:51.530Z,2.90
2017-11-11T01:00:19.005Z,3.70
2017-11-11T01:02:46.460Z,3.07
2017-11-11T01:05:13.943Z,3.20
2017-11-11T01:07:43.366Z,2.70
2017-11-11T01:10:10.877Z,2.20
2017-11-11T01:12:38.369Z,3.53
2017-11-11T01:15:06.793Z,3.27
2017-11-11T01:17:34.340Z,2.83
2017-11-11T01:20:01.811Z,3.57
2017-11-11T01:22:29.256Z,3.50
2017-11-11T01:24:56.721Z,3.30
2017-11-11T01:27:24.159Z,3.50
2017-11-11T01:29:51.639Z,4.30
2017-11-11T01:32:19.099Z,4.40
2017-11-11T01:34:46.565Z,3.20
2017-11-11T01:37:14.013Z,3.53
2017-11-11T01:39:41.484Z,4.10
2017-11-11T01:42:08.923Z,4.13
2017-11-11T01:44:36.467Z,3.10
2017-11-11T01:47:03.932Z,3.30
2017-11-11T01:49:31.399Z,3.73
2017-11-11T01:51:58.946Z,3.10
2017-11-11T01:54:26.503Z,3.73
2017-11-11T01:56:54.068Z,3.50
2017-11-11T01:59:21.621Z,3.60
2017-11-11T02:01:49.092Z,4.50
2017-11-11T02:04:16.542Z,4.47
2017-11-11T02:06:44.016Z,3.57
2017-11-11T02:09:11.457Z,3.97
2017-11-11T02:11:38.924Z,3.10
2017-11-11T02:14:06.368Z,2.97
2017-11-11T02:16:33.852Z,3.30
2017-11-11T02:19:01.308Z,2.70
2017-11-11T02:21:28.790Z,3.53
2017-11-11T02:23:56.256Z,3.60
2017-11-11T02:26:23.721Z,3.57
2017-11-11T02:28:51.176Z,3.90
2017-11-11T02:31:18.641Z,2.70
2017-11-11T02:33:46.137Z,3.10
2017-11-11T02:36:13.584Z,2.80
2017-11-11T02:38:41.052Z,2.13
2017-11-11T02:41:08.500Z,3.57
2017-11-11T02:43:36.000Z,3.07
2017-11-11T02:46:03.491Z,3.60
2017-11-11T02:48:30.960Z,3.87
2017-11-11T02:50:58.404Z,4.63
2017-11-11T02:53:25.874Z,4.00
2017-11-11T02:55:53.323Z,2.77
2017-11-11T02:58:20.793Z,4.20
2017-11-11T03:00:48.244Z,4.73
2017-11-11T03:03:15.728Z,3.80
2017-11-11T03:05:43.198Z,4.17
2017-11-11T03:08:10.641Z,4.50
2017-11-11T03:10:38.188Z,5.60
2017-11-11T03:13:05.637Z,3.80
2017-11-11T03:15:33.125Z,4.20
2017-11-11T03:18:00.589Z,3.67
2017-11-11T03:20:28.062Z,3.67
2017-11-11T03:22:55.507Z,4.50
2017-11-11T03:25:22.980Z,4.90
2017-11-11T03:27:50.421Z,3.10
2017-11-11T03:30:17.904Z,4.80
2017-11-11T03:32:45.376Z,2.00
2017-11-11T03:35:12.819Z,2.93
2017-11-11T03:37:40.304Z,3.20
2017-11-11T03:40:07.844Z,2.77
2017-11-11T03:42:35.410Z,3.13
2017-11-11T03:45:02.872Z,3.43
2017-11-11T03:47:30.421Z,2.60
2017-11-11T03:49:57.879Z,3.10
2017-11-11T03:52:25.438Z,2.97
2017-11-11T03:54:52.917Z,3.20
2017-11-11T03:57:20.392Z,2.70
2017-11-11T03:59:47.836Z,2.40
2017-11-11T04:02:15.321Z,2.90
2017-11-11T04:04:42.782Z,3.70
2017-11-11T04:07:10.279Z,2.60
2017-11-11T04:09:37.728Z,4.90
2017-11-11T04:12:05.296Z,2.60
2017-11-11T04:14:32.740Z,2.40
2017-11-11T04:17:00.210Z,2.30
2017-11-11T04:19:27.667Z,2.50
2017-11-11T04:21:55.211Z,3.30
2017-11-11T04:24:22.680Z,2.63
2017-11-11T04:26:50.124Z,2.73
2017-11-11T04:29:17.687Z,2.60
2017-11-11T04:31:45.156Z,3.03
2017-11-11T04:34:12.657Z,4.00
2017-11-11T04:36:40.105Z,5.50
2017-11-11T04:39:07.622Z,5.20
2017-11-11T04:41:35.068Z,3.77
2017-11-11T04:44:02.539Z,3.20
2017-11-11T04:46:29.992Z,3.53
2017-11-11T04:48:57.476Z,4.00
2017-11-11T04:51:24.924Z,4.70
2017-11-11T04:53:52.392Z,4.30
2017-11-11T04:56:19.923Z,3.23
2017-11-11T04:58:47.482Z,4.23
2017-11-11T05:01:14.937Z,3.93
2017-11-11T05:03:42.449Z,5.00
2017-11-11T05:06:09.925Z,4.00
2017-11-11T05:08:37.387Z,4.10
2017-11-11T05:11:04.981Z,4.70
2017-11-11T05:13:32.528Z,5.10
2017-11-11T05:16:00.012Z,4.00
2017-11-11T05:18:27.543Z,4.67
2017-11-11T05:20:55.032Z,4.57
2017-11-11T05:23:22.564Z,4.87
2017-11-11T05:25:50.128Z,5.33
2017-11-11T05:28:17.568Z,4.93
2017-11-11T05:30:45.040Z,4.60
2017-11-11T05:33:12.489Z,4.30
2017-11-11T05:35:39.964Z,5.17
2017-11-11T05:38:07.419Z,4.27
2017-11-11T05:40:34.906Z,4.70
2017-11-11T05:43:02.382Z,6.37
2017-11-11T05:45:29.833Z,4.77
2017-11-11T05:47:57.310Z,4.90
2017-11-11T05:50:24.799Z,4.93
2017-11-11T05:52:52.269Z,5.07
2017-11-11T05:55:19.799Z,4.33
2017-11-11T05:57:47.292Z,3.87
2017-11-11T06:00:14.753Z,4.40
2017-11-11T06:02:42.271Z,5.20
2017-11-11T06:05:09.721Z,4.80
2017-11-11T06:07:37.192Z,4.50
2017-11-11T06:10:04.649Z,4.60
2017-11-11T06:12:32.204Z,4.30
2017-11-11T06:14:59.644Z,3.87
2017-11-11T06:17:27.120Z,4.10
2017-11-11T06:19:54.571Z,4.10
2017-11-11T06:22:22.125Z,3.70
2017-11-11T06:24:49.605Z,5.13
2017-11-11T06:27:17.140Z,4.73
2017-11-11T06:29:44.576Z,3.87
2017-11-11T06:32:12.036Z,4.13
2017-11-11T06:34:39.616Z,4.00
2017-11-11T06:37:07.176Z,4.20
2017-11-11T06:39:34.635Z,4.60
2017-11-11T06:42:02.185Z,4.10
2017-11-11T06:44:29.652Z,5.17
2017-11-11T06:46:57.204Z,4.90
2017-11-11T06:49:24.668Z,6.30
2017-11-11T06:51:52.133Z,7.33
2017-11-11T06:54:19.698Z,5.90
2017-11-11T06:56:47.216Z,7.33
2017-11-11T06:59:14.672Z,8.73
2017-11-11T07:01:42.162Z,9.50
2017-11-11T07:04:09.636Z,10.47
2017-11-11T07:06:37.093Z,11.30
2017-11-11T07:09:04.545Z,9.43
2017-11-11T07:11:32.036Z,10.57
2017-11-11T07:13:59.481Z,7.70
2017-11-11T07:16:26.983Z,8.00
2017-11-11T07:18:54.445Z,7.00
2017-11-11T07:21:21.920Z,11.70
2017-11-11T07:23:49.436Z,8.63
2017-11-11T07:26:16.917Z,10.10
2017-11-11T07:28:44.385Z,10.20
2017-11-11T07:31:11.860Z,11.03
2017-11-11T07:33:39.320Z,10.90
2017-11-11T07:36:06.795Z,12.53
2017-11-11T07:38:34.302Z,9.27
2017-11-11T07:41:01.824Z,12.70
2017-11-11T07:43:29.301Z,11.97
2017-11-11T07:45:56.775Z,12.60
2017-11-11T07:48:24.345Z,11.30
2017-11-11T07:50:51.800Z,11.07
2017-11-11T07:53:19.347Z,8.93
2017-11-11T07:55:46.808Z,10.03
2017-11-11T07:58:14.309Z,9.20
2017-11-11T08:00:41.822Z,10.17
2017-11-11T08:03:09.326Z,8.77
2017-11-11T08:05:36.789Z,11.37
2017-11-11T08:08:04.272Z,11.60
2017-11-11T08:10:31.732Z,12.27
2017-11-11T08:12:59.238Z,14.17
2017-11-11T08:15:26.765Z,14.40
2017-11-11T08:17:54.236Z,14.30
2017-11-11T08:20:21.680Z,15.30
2017-11-11T08:22:49.156Z,14.57
2017-11-11T08:25:16.828Z,14.63
2017-11-11T08:27:44.285Z,14.97
2017-11-11T08:30:11.782Z,15.63
2017-11-11T08:32:39.253Z,13.13
2017-11-11T08:35:06.728Z,12.07
2017-11-11T08:37:34.276Z,9.80
2017-11-11T08:40:01.768Z,9.97
2017-11-11T08:42:29.293Z,9.23
2017-11-11T08:44:56.783Z,9.00
2017-11-11T08:47:24.241Z,10.43
2017-11-11T08:49:51.697Z,8.80
2017-11-11T08:52:19.183Z,9.23
2017-11-11T08:54:46.640Z,10.00
2017-11-11T08:57:14.120Z,10.20
2017-11-11T08:59:41.580Z,9.13
2017-11-11T09:02:09.050Z,9.60
2017-11-11T09:04:36.505Z,10.03
2017-11-11T09:07:03.996Z,9.37
2017-11-11T09:09:31.531Z,12.23
2017-11-11T09:11:59.077Z,9.80
2017-11-11T09:14:26.539Z,8.60
2017-11-11T09:16:54.008Z,7.70
2017-11-11T09:19:21.469Z,8.67
2017-11-11T09:21:48.968Z,9.23
2017-11-11T09:24:16.429Z,7.70
2017-11-11T09:26:43.897Z,9.63
2017-11-11T09:29:11.412Z,8.53
2017-11-11T09:31:38.864Z,8.00
2017-11-11T09:34:06.354Z,7.73
2017-11-11T09:36:33.853Z,5.37
2017-11-11T09:39:01.323Z,5.40
2017-11-11T09:41:28.784Z,4.80
2017-11-11T09:43:56.321Z,5.13
2017-11-11T09:46:23.784Z,4.87
2017-11-11T09:48:51.265Z,6.27
2017-11-11T09:51:18.796Z,4.80
2017-11-11T09:53:46.612Z,4.77
2017-11-11T09:56:14.054Z,4.07
2017-11-11T09:58:41.522Z,3.67
2017-11-11T10:01:09.167Z,3.83
2017-11-11T10:03:37.939Z,4.40
2017-11-11T10:06:05.405Z,3.70
2017-11-11T10:08:32.864Z,4.23
2017-11-11T10:11:00.392Z,2.90
2017-11-11T10:13:27.836Z,3.50
2017-11-11T10:15:55.305Z,3.50
2017-11-11T10:18:22.770Z,2.83
2017-11-11T10:20:50.231Z,2.70
2017-11-11T10:23:17.668Z,2.50
2017-11-11T10:25:45.127Z,1.90
2017-11-11T10:28:12.567Z,2.17
2017-11-11T10:30:40.151Z,2.07
2017-11-11T10:33:07.599Z,1.63
2017-11-11T10:35:35.064Z,1.60
2017-11-11T10:38:02.509Z,1.43
2017-11-11T10:40:30.070Z,1.90
2017-11-11T10:42:57.516Z,2.23
2017-11-11T10:45:25.088Z,1.77
2017-11-11T10:47:52.530Z,2.20
2017-11-11T10:50:19.981Z,2.43
2017-11-11T10:52:47.440Z,2.93
2017-11-11T10:55:14.877Z,3.27
2017-11-11T10:57:42.340Z,3.70
2017-11-11T11:00:09.784Z,2.50
2017-11-11T11:02:37.261Z,2.60
2017-11-11T11:05:04.716Z,2.03
2017-11-11T11:07:32.200Z,2.40
2017-11-11T11:09:59.641Z,2.00
2017-11-11T11:12:27.113Z,3.67
2017-11-11T11:14:54.556Z,2.30
2017-11-11T11:17:22.032Z,3.13
2017-11-11T11:19:49.583Z,2.63
2017-11-11T11:22:17.037Z,3.27
2017-11-11T11:24:44.499Z,3.20
2017-11-11T11:27:11.944Z,3.73
2017-11-11T11:29:39.411Z,4.20
2017-11-11T11:32:06.852Z,5.20
2017-11-11T11:34:34.347Z,5.37
2017-11-11T11:37:01.825Z,4.37
2017-11-11T11:39:29.274Z,3.63
2017-11-11T11:41:56.721Z,6.27
2017-11-11T11:44:24.203Z,5.20
2017-11-11T11:46:51.644Z,3.53
2017-11-11T11:49:19.114Z,4.17
2017-11-11T11:51:46.563Z,3.37
2017-11-11T11:54:14.036Z,3.10
2017-11-11T11:56:41.482Z,2.83
2017-11-11T11:59:08.984Z,2.13
2017-11-11T12:01:36.444Z,2.90
2017-11-11T12:04:03.920Z,2.60
2017-11-11T12:06:31.385Z,2.33
2017-11-11T12:08:58.856Z,1.90
2017-11-11T12:11:26.311Z,2.40
2017-11-11T12:13:53.781Z,2.20
2017-11-11T12:16:21.277Z,2.60
2017-11-11T12:18:48.743Z,2.30
2017-11-11T12:21:16.297Z,2.10
2017-11-11T12:23:43.755Z,1.40
2017-11-11T12:26:11.221Z,1.73
2017-11-11T12:28:38.667Z,1.40
2017-11-11T12:31:06.139Z,1.33
2017-11-11T12:33:33.587Z,0.90
2017-11-11T12:36:01.071Z,1.20
2017-11-11T12:38:28.557Z,1.03
2017-11-11T12:40:56.020Z,1.20
2017-11-11T12:43:23.464Z,1.63
2017-11-11T12:45:50.923Z,1.27
2017-11-11T12:48:18.377Z,1.27
2017-11-11T12:50:45.836Z,1.20
2017-11-11T12:53:13.284Z,1.10
2017-11-11T12:55:40.748Z,1.00
2017-11-11T12:58:08.204Z,0.80
2017-11-11T13:00:35.706Z,1.00
2017-11-11T13:03:03.165Z,1.03
2017-11-11T13:05:30.621Z,1.17
2017-11-11T13:07:58.088Z,1.03
2017-11-11T13:10:25.529Z,0.97
2017-11-11T13:12:52.997Z,1.80
2017-11-11T13:15:20.435Z,1.17
2017-11-11T13:17:47.916Z,1.00
2017-11-11T13:20:15.359Z,0.93
2017-11-11T13:22:42.921Z,0.70
2017-11-11T13:25:10.477Z,0.83
2017-11-11T13:27:37.940Z,1.00
2017-11-11T13:30:05.390Z,1.20
2017-11-11T13:32:32.872Z,1.07
2017-11-11T13:35:00.321Z,0.60
2017-11-11T13:37:27.812Z,0.80
2017-11-11T13:39:55.318Z,0.47
2017-11-11T13:42:22.787Z,13.13
2017-11-11T13:44:50.228Z,1.90
2017-11-11T13:47:17.712Z,1.47
2017-11-11T13:49:45.149Z,0.57
2017-11-11T13:52:12.608Z,0.77
2017-11-11T13:54:40.065Z,0.53
2017-11-11T13:57:07.509Z,0.80
2017-11-11T13:59:34.981Z,0.70
2017-11-11T14:02:02.429Z,0.50
2017-11-11T14:04:29.896Z,0.50
2017-11-11T14:06:57.345Z,0.70
2017-11-11T14:09:24.898Z,0.50
2017-11-11T14:11:52.425Z,0.47
2017-11-11T14:14:19.905Z,0.40
2017-11-11T14:16:47.369Z,0.40
2017-11-11T14:19:14.836Z,0.40
2017-11-11T14:21:42.359Z,0.50
2017-11-11T14:24:09.841Z,0.40
2017-11-11T14:26:37.411Z,0.50
2017-11-11T14:29:04.951Z,0.80
2017-11-11T14:31:32.413Z,0.60
2017-11-11T14:33:59.876Z,0.87
2017-11-11T14:36:27.358Z,0.47
2017-11-11T14:38:54.889Z,0.40
2017-11-11T14:41:22.360Z,0.50
2017-11-11T14:43:49.804Z,0.60
2017-11-11T14:46:17.267Z,0.80
2017-11-11T14:48:44.725Z,0.40
2017-11-11T14:51:12.273Z,0.60
2017-11-11T14:53:39.721Z,0.60
2017-11-11T14:56:07.280Z,0.50
2017-11-11T14:58:34.728Z,0.50
2017-11-11T15:01:02.202Z,1.10
2017-11-11T15:03:29.657Z,0.73
2017-11-11T15:05:57.144Z,0.80
2017-11-11T15:08:24.673Z,0.60
2017-11-11T15:10:52.163Z,0.60
2017-11-11T15:13:19.888Z,0.80
2017-11-11T15:15:47.518Z,0.73
2017-11-11T15:18:15.141Z,0.60
2017-11-11T15:20:42.597Z,0.77
2017-11-11T15:23:10.078Z,1.10
2017-11-11T15:25:37.536Z,0.60
2017-11-11T15:28:05.023Z,0.60
2017-11-11T15:30:32.661Z,0.70
2017-11-11T15:33:00.828Z,0.80
2017-11-11T15:35:28.911Z,0.77
2017-11-11T15:37:56.967Z,0.60
2017-11-11T15:40:24.447Z,0.73
2017-11-11T15:42:52.677Z,0.70
2017-11-11T15:45:20.253Z,0.70
2017-11-11T15:47:47.725Z,1.30
2017-11-11T15:50:15.183Z,0.60
2017-11-11T15:52:42.628Z,0.50
2017-11-11T15:55:10.088Z,1.80
2017-11-11T15:57:37.531Z,0.80
2017-11-11T16:00:05.018Z,0.93
2017-11-11T16:02:32.464Z,0.60
2017-11-11T16:04:59.937Z,0.83
2017-11-11T16:07:27.384Z,0.80
2017-11-11T16:09:54.852Z,0.90
2017-11-11T16:12:22.296Z,1.10
2017-11-11T16:14:49.789Z,0.87
2017-11-11T16:17:17.245Z,0.80
2017-11-11T16:19:44.708Z,0.70
2017-11-11T16:22:12.265Z,0.70
2017-11-11T16:24:40.014Z,1.20
2017-11-11T16:29:44.809Z,0.90
2017-11-11T16:32:12.300Z,1.23
2017-11-11T16:34:39.757Z,1.60
2017-11-11T16:37:07.317Z,1.50
2017-11-11T16:39:34.791Z,1.27
2017-11-11T16:42:02.356Z,1.67
2017-11-11T16:44:30.220Z,1.80
2017-11-11T16:46:57.723Z,1.53
2017-11-11T16:49:25.209Z,3.60
2017-11-11T16:51:52.688Z,5.10
2017-11-11T16:54:20.124Z,3.57
2017-11-11T16:56:47.606Z,5.47
2017-11-11T16:59:15.153Z,5.70
2017-11-11T17:01:42.832Z,4.33
2017-11-11T17:04:10.419Z,3.90
2017-11-11T17:06:38.479Z,3.00
2017-11-11T17:09:07.175Z,2.83
2017-11-11T17:11:35.164Z,1.73
2017-11-11T17:14:02.689Z,2.30
2017-11-11T17:16:30.804Z,1.63
2017-11-11T17:18:58.656Z,2.17
2017-11-11T17:21:26.101Z,2.50
2017-11-11T17:23:54.064Z,2.30
2017-11-11T17:26:21.801Z,2.30
2017-11-11T17:28:49.303Z,1.63
2017-11-11T17:31:16.753Z,1.30
2017-11-11T17:33:44.209Z,1.80
2017-11-11T17:36:11.842Z,1.43
2017-11-11T17:38:39.333Z,1.30
2017-11-11T17:41:06.782Z,1.10
2017-11-11T17:43:34.349Z,3.27
2017-11-11T17:46:01.834Z,1.47
2017-11-11T17:48:29.290Z,0.60
2017-11-11T17:50:56.822Z,0.60
2017-11-11T17:53:24.263Z,0.70
2017-11-11T17:55:51.805Z,0.70
2017-11-11T17:58:19.251Z,0.70
2017-11-11T18:00:46.728Z,1.07
2017-11-11T18:03:14.169Z,1.27
2017-11-11T18:05:41.643Z,1.83
2017-11-11T18:08:09.097Z,1.33
2017-11-11T18:10:36.579Z,2.03
2017-11-11T18:13:04.081Z,2.07
2017-11-11T18:15:31.600Z,2.90
2017-11-11T18:17:59.051Z,2.00
2017-11-11T18:20:26.500Z,2.40
2017-11-11T18:22:53.985Z,3.03
2017-11-11T18:25:21.429Z,2.50
2017-11-11T18:27:48.901Z,2.60
2017-11-11T18:30:16.367Z,2.37
2017-11-11T18:32:43.824Z,2.30
2017-11-11T18:35:11.434Z,2.57
2017-11-11T18:37:38.896Z,2.80
2017-11-11T18:40:06.339Z,2.63
2017-11-11T18:42:33.929Z,2.50
2017-11-11T18:45:01.417Z,2.80
2017-11-11T18:47:28.885Z,2.43
2017-11-11T18:49:56.337Z,2.00
2017-11-11T18:52:23.805Z,3.00
2017-11-11T18:54:51.377Z,3.30
2017-11-11T18:57:18.907Z,2.67
2017-11-11T18:59:46.362Z,2.60
2017-11-11T19:02:13.922Z,2.90
2017-11-11T19:04:41.351Z,3.63
2017-11-11T19:07:08.839Z,3.40
2017-11-11T19:09:36.300Z,3.30
2017-11-11T19:12:03.741Z,2.80
2017-11-11T19:14:32.200Z,2.70
2017-11-11T19:16:59.701Z,3.20
2017-11-11T19:19:27.242Z,3.17
2017-11-11T19:21:54.684Z,3.90
2017-11-11T19:24:22.156Z,3.83
2017-11-11T19:26:49.596Z,3.73
2017-11-11T19:29:17.055Z,4.03
2017-11-11T19:31:44.505Z,3.70
2017-11-11T19:34:12.072Z,4.30
2017-11-11T19:36:39.512Z,5.97
2017-11-11T19:39:06.961Z,5.13
2017-11-11T19:41:34.425Z,3.97
2017-11-11T19:44:01.861Z,4.10
2017-11-11T19:46:29.316Z,4.83
2017-11-11T19:48:56.760Z,4.50
2017-11-11T19:51:24.228Z,4.07
2017-11-11T19:53:51.744Z,5.43
2017-11-11T19:56:19.208Z,4.40
2017-11-11T19:58:46.757Z,5.53
2017-11-11T20:01:14.244Z,5.57
2017-11-11T20:03:41.696Z,5.97
2017-11-11T20:06:09.161Z,4.90
2017-11-11T20:08:36.616Z,5.43
2017-11-11T20:11:04.104Z,5.63
2017-11-11T20:13:31.545Z,5.40
2017-11-11T20:15:59.050Z,5.20
2017-11-11T20:18:26.528Z,5.20
2017-11-11T20:20:54.064Z,5.17
2017-11-11T20:23:21.617Z,7.00
2017-11-11T20:25:49.090Z,6.87
2017-11-11T20:28:16.560Z,6.03
2017-11-11T20:30:43.992Z,5.50
2017-11-11T20:33:11.471Z,6.47
2017-11-11T20:35:39.008Z,6.67
2017-11-11T20:38:06.468Z,6.10
2017-11-11T20:40:33.929Z,6.80
2017-11-11T20:43:01.418Z,7.10
2017-11-11T20:45:28.893Z,6.37
2017-11-11T20:47:56.397Z,7.27
2017-11-11T20:50:23.870Z,6.40
2017-11-11T20:52:51.339Z,5.63
2017-11-11T20:55:18.792Z,6.63
2017-11-11T20:57:46.275Z,5.70
2017-11-11T21:00:13.733Z,5.83
2017-11-11T21:02:41.183Z,6.50
2017-11-11T21:05:08.690Z,5.13
2017-11-11T21:07:36.119Z,6.37
2017-11-11T21:10:03.616Z,6.03
2017-11-11T21:12:31.084Z,6.37
2017-11-11T21:14:58.626Z,5.77
2017-11-11T21:17:26.177Z,6.10
2017-11-11T21:19:53.637Z,8.73
2017-11-11T21:22:21.079Z,12.37
2017-11-11T21:24:48.544Z,18.07
2017-11-11T21:27:16.009Z,19.67
2017-11-11T21:29:43.565Z,13.13
2017-11-11T21:32:11.015Z,12.00
2017-11-11T21:34:39.393Z,11.17
2017-11-11T21:37:08.855Z,13.07
2017-11-11T21:39:36.755Z,10.43
2017-11-11T21:42:04.381Z,11.80
2017-11-11T21:44:32.046Z,11.33
2017-11-11T21:46:59.515Z,10.87
2017-11-11T21:49:26.981Z,12.63
2017-11-11T21:51:54.472Z,10.67
2017-11-11T21:54:21.928Z,10.93
2017-11-11T21:56:49.396Z,9.97
2017-11-11T21:59:16.860Z,9.60
2017-11-11T22:01:44.323Z,10.00
2017-11-11T22:04:11.762Z,7.27
2017-11-11T22:06:39.305Z,7.97
2017-11-11T22:09:06.752Z,7.17
2017-11-11T22:11:34.316Z,8.70
2017-11-11T22:14:01.788Z,7.57
2017-11-11T22:16:29.268Z,6.87
2017-11-11T22:18:56.720Z,7.40
2017-11-11T22:21:24.213Z,7.60
2017-11-11T22:23:51.692Z,6.63
2017-11-11T22:26:19.162Z,6.87
2017-11-11T22:28:46.628Z,5.13
2017-11-11T22:31:14.075Z,5.90
2017-11-11T22:33:41.540Z,6.33
2017-11-11T22:36:09.004Z,5.67
2017-11-11T22:38:36.492Z,7.17
2017-11-11T22:41:04.001Z,6.53
2017-11-11T22:43:31.546Z,6.10
2017-11-11T22:45:58.985Z,6.70
2017-11-11T22:48:26.448Z,7.33
2017-11-11T22:50:53.887Z,6.93
2017-11-11T22:53:21.364Z,8.67
2017-11-11T22:55:48.843Z,8.43
2017-11-11T22:58:16.304Z,8.30
2017-11-11T23:00:43.956Z,8.50
2017-11-11T23:03:11.477Z,8.10
2017-11-11T23:05:38.968Z,8.00
2017-11-11T23:08:06.454Z,7.67
2017-11-11T23:10:33.991Z,8.87
2017-11-11T23:15:54.525Z,7.00
2017-11-11T23:18:21.968Z,8.00
2017-11-11T23:20:49.512Z,8.00
2017-11-11T23:23:16.948Z,7.40
2017-11-11T23:25:44.535Z,6.77
2017-11-11T23:28:11.988Z,8.43
2017-11-11T23:30:39.495Z,7.40
2017-11-11T23:33:07.007Z,8.10
2017-11-11T23:35:34.477Z,8.57
2017-11-11T23:38:01.911Z,7.70
2017-11-11T23:40:29.472Z,8.30
2017-11-11T23:42:56.932Z,7.53
2017-11-11T23:45:24.397Z,7.90
2017-11-11T23:47:52.005Z,7.90
2017-11-11T23:50:19.464Z,8.47
2017-11-11T23:52:46.910Z,8.07
2017-11-11T23:55:14.404Z,9.10
2017-11-11T23:57:41.845Z,9.60
